Time;durP1;ratioP1;P1;durP2;ratioP2;P2;SDS_P1;SDS_P2;PMS_P1;PMS_P2;Temp;Humidity;BMP_temperature;BMP_pressure;BME280_temperature;BME280_humidity;BME280_pressure;Samples;Min_cycle;Max_cycle;Signal;HPM_P1;HPM_P2
2024/03/05 00:02:07;;;;;;;1999.90;999.90;;;;;;;4.69;100.00;101174.78;10453797;28;20084;-71
2024/03/05 00:07:10;;;;;;;1999.90;999.90;;;;;;;4.79;100.00;101172.78;10457527;28;20128;-70
2024/03/05 00:12:13;;;;;;;1999.90;999.90;;;;;;;5.45;100.00;101170.91;10461301;28;20045;-71
2024/03/05 00:17:15;;;;;;;1999.90;999.90;;;;;;;4.86;100.00;101183.84;10460922;28;20053;-70
2024/03/05 00:22:18;;;;;;;1999.90;999.90;;;;;;;4.78;100.00;101181.47;10462236;28;20056;-71
2024/03/05 00:27:20;;;;;;;1999.90;999.90;;;;;;;4.67;100.00;101176.56;10460617;28;20056;-70
2024/03/05 00:32:22;;;;;;;1999.90;999.90;;;;;;;4.70;100.00;101178.22;10461476;28;20140;-70
2024/03/05 00:37:25;;;;;;;1999.90;999.90;;;;;;;4.90;100.00;101181.13;10443782;28;20049;-71
2024/03/05 00:42:27;;;;;;;1999.90;999.90;;;;;;;4.55;100.00;101188.09;10460046;28;20103;-71
2024/03/05 00:47:30;;;;;;;1999.90;999.90;;;;;;;4.57;100.00;101185.47;10460000;28;20049;-70
2024/03/05 00:52:33;;;;;;;1999.90;999.90;;;;;;;4.60;100.00;101185.41;10460571;28;20067;-71
2024/03/05 00:57:39;;;;;;;1999.90;999.90;;;;;;;4.72;100.00;101184.22;10459244;28;20045;-71
2024/03/05 01:02:44;;;;;;;1999.90;999.90;;;;;;;4.83;100.00;101188.22;10459143;28;20464;-70
2024/03/05 01:07:47;;;;;;;1999.90;999.90;;;;;;;4.87;100.00;101191.59;10442837;28;20495;-71
2024/03/05 01:12:49;;;;;;;1999.90;999.90;;;;;;;5.14;100.00;101187.34;10458952;28;20452;-70
2024/03/05 01:17:52;;;;;;;1999.90;999.90;;;;;;;5.27;100.00;101189.63;10459160;28;20052;-70
2024/03/05 01:22:54;;;;;;;1999.90;999.90;;;;;;;5.28;100.00;101179.19;10458958;28;20048;-71
2024/03/05 01:27:57;;;;;;;1999.90;999.90;;;;;;;5.37;100.00;101191.06;10441664;28;20045;-70
2024/03/05 01:33:05;;;;;;;1999.90;999.90;;;;;;;5.53;100.00;101183.63;10458441;28;20045;-70
2024/03/05 01:38:08;;;;;;;1999.90;999.90;;;;;;;5.42;100.00;101180.53;10459217;28;20091;-70
2024/03/05 01:43:10;;;;;;;1999.90;999.90;;;;;;;5.44;100.00;101176.97;10458855;28;20132;-70
2024/03/05 01:48:14;;;;;;;1999.90;999.90;;;;;;;5.61;100.00;101175.63;10457271;28;20075;-70
2024/03/05 01:53:17;;;;;;;1999.90;999.90;;;;;;;5.69;100.00;101171.06;10456879;28;20456;-71
2024/03/05 01:58:19;;;;;;;1999.90;999.90;;;;;;;5.76;100.00;101175.16;10457218;28;20055;-70
2024/03/05 02:03:22;;;;;;;1999.90;999.90;;;;;;;5.67;100.00;101172.84;10458016;28;20055;-70
2024/03/05 02:08:25;;;;;;;1999.90;999.90;;;;;;;5.76;100.00;101172.56;10440306;28;20041;-71
2024/03/05 02:13:28;;;;;;;1999.90;999.90;;;;;;;5.85;100.00;101176.59;10456474;28;20516;-70
2024/03/05 02:18:30;;;;;;;1999.90;999.90;;;;;;;5.88;100.00;101179.09;10456465;28;20045;-71
2024/03/05 02:23:32;;;;;;;1999.90;999.90;;;;;;;5.90;100.00;101174.72;10456452;28;20080;-71
2024/03/05 02:28:38;;;;;;;1999.90;999.90;;;;;;;6.24;100.00;101179.72;10456143;28;20462;-70
2024/03/05 02:33:42;;;;;;;1999.90;999.90;;;;;;;6.25;100.00;101170.16;10457092;28;20072;-70
2024/03/05 02:38:44;;;;;;;1999.90;999.90;;;;;;;6.22;100.00;101178.03;10439090;28;20490;-71
2024/03/05 02:43:47;;;;;;;1999.90;999.90;;;;;;;6.29;100.00;101169.16;10456736;28;20072;-71
2024/03/05 02:48:49;;;;;;;1999.90;999.90;;;;;;;6.13;100.00;101169.66;10455093;28;20513;-71
2024/03/05 02:53:52;;;;;;;1999.90;999.90;;;;;;;6.27;100.00;101152.72;10454873;28;20086;-71
2024/03/05 02:58:54;;;;;;;1999.90;999.90;;;;;;;6.41;100.00;101153.13;10454992;28;20048;-71
2024/03/05 03:03:57;;;;;;;1999.90;999.90;;;;;;;6.10;100.00;101148.97;10456112;28;20468;-70
2024/03/05 03:08:59;;;;;;;1999.90;999.90;;;;;;;6.18;100.00;101147.88;10455109;28;20051;-71
2024/03/05 03:14:03;;;;;;;1999.90;999.90;;;;;;;6.24;100.00;101151.09;10455739;28;20489;-70
2024/03/05 03:19:06;;;;;;;1999.90;999.90;;;;;;;6.29;100.00;101151.81;10455420;28;20460;-70
2024/03/05 03:24:13;;;;;;;1999.90;999.90;;;;;;;6.27;100.00;101151.00;10455887;28;20049;-70
2024/03/05 03:29:15;;;;;;;1999.90;999.90;;;;;;;6.13;100.00;101148.00;10455443;28;20071;-70
2024/03/05 03:34:18;;;;;;;1999.90;999.90;;;;;;;6.22;100.00;101147.72;10455208;28;20076;-70
2024/03/05 03:39:23;;;;;;;1999.90;999.90;;;;;;;6.02;100.00;101143.19;10455200;28;20448;-70
2024/03/05 03:44:27;;;;;;;1999.90;999.90;;;;;;;6.09;100.00;101138.63;10463897;28;20060;-70
2024/03/05 03:49:29;;;;;;;1999.90;999.90;;;;;;;6.41;100.00;101149.69;10464029;28;20044;-70
2024/03/05 03:54:33;;;;;;;1999.90;999.90;;;;;;;6.39;100.00;101147.13;10461902;28;20061;-71
2024/03/05 03:59:35;;;;;;;1999.90;999.90;;;;;;;6.34;100.00;101138.66;10463092;28;20490;-70
2024/03/05 04:04:38;;;;;;;1999.90;999.90;;;;;;;6.57;100.00;101147.41;10462652;28;20059;-70
2024/03/05 04:09:40;;;;;;;1999.90;999.90;;;;;;;6.49;100.00;101147.69;10475841;22;20149;-65
2024/03/05 04:14:42;;;;;;;1999.90;999.90;;;;;;;6.48;100.00;101154.59;10444626;28;20084;-65
2024/03/05 04:19:46;;;;;;;1999.90;999.90;;;;;;;6.66;100.00;101158.34;10461141;28;20051;-65
2024/03/05 04:24:56;;;;;;;1999.90;999.90;;;;;;;6.74;100.00;101152.00;10462121;28;20449;-65
2024/03/05 04:29:59;;;;;;;1999.90;999.90;;;;;;;6.61;100.00;101164.63;10460727;28;20414;-65
2024/03/05 04:35:02;;;;;;;1999.90;999.90;;;;;;;6.59;100.00;101163.78;10462429;28;20122;-66
2024/03/05 04:40:10;;;;;;;1999.90;999.90;;;;;;;6.81;100.00;101163.91;10460201;28;20049;-65
2024/03/05 04:45:12;;;;;;;1999.90;999.90;;;;;;;6.77;100.00;101170.94;10461407;28;20105;-65
2024/03/05 04:50:16;;;;;;;1999.90;999.90;;;;;;;6.80;100.00;101168.25;10460197;28;20084;-65
2024/03/05 04:55:19;;;;;;;1999.90;999.90;;;;;;;6.80;100.00;101180.41;10459994;28;20442;-65
2024/03/05 05:00:23;;;;;;;1999.90;999.90;;;;;;;6.82;100.00;101173.41;10460429;28;20456;-65
2024/03/05 05:05:26;;;;;;;1999.90;999.90;;;;;;;6.81;100.00;101172.56;10460906;28;20056;-65
2024/03/05 05:10:31;;;;;;;1999.90;999.90;;;;;;;6.91;100.00;101175.69;10460159;28;20102;-65
2024/03/05 05:15:34;;;;;;;1999.90;999.90;;;;;;;6.87;100.00;101185.34;10459931;28;20405;-65
2024/03/05 05:20:36;;;;;;;1999.90;999.90;;;;;;;6.63;100.00;101183.63;10459831;28;20044;-66
2024/03/05 05:25:38;;;;;;;1999.90;999.90;;;;;;;6.83;100.00;101186.34;10459513;28;20605;-65
2024/03/05 05:30:41;;;;;;;1999.90;999.90;;;;;;;6.92;100.00;101194.75;10459537;28;20053;-66
2024/03/05 05:35:43;;;;;;;1999.90;999.90;;;;;;;6.91;100.00;101187.84;10459446;28;20098;-66
2024/03/05 05:40:45;;;;;;;1999.90;999.90;;;;;;;6.91;100.00;101186.09;10459131;28;20056;-66
2024/03/05 05:45:48;;;;;;;1999.90;999.90;;;;;;;6.88;100.00;101181.84;10458983;28;20063;-66
2024/03/05 05:50:54;;;;;;;1999.90;999.90;;;;;;;6.93;100.00;101179.06;10458430;28;20128;-66
2024/03/05 05:55:57;;;;;;;1999.90;999.90;;;;;;;6.83;100.00;101175.09;10457505;28;20084;-65
2024/03/05 06:01:04;;;;;;;1999.90;999.90;;;;;;;7.02;100.00;101189.13;10458070;28;20048;-65
2024/03/05 06:06:07;;;;;;;1999.90;999.90;;;;;;;6.80;100.00;101190.81;10456924;28;20049;-66
2024/03/05 06:11:10;;;;;;;1999.90;999.90;;;;;;;6.79;100.00;101197.78;10457899;28;20547;-66
2024/03/05 06:16:12;;;;;;;1999.90;999.90;;;;;;;6.98;100.00;101195.38;10457808;28;20131;-66
2024/03/05 06:21:15;;;;;;;1999.90;999.90;;;;;;;6.99;100.00;101204.03;10456407;28;20072;-66
2024/03/05 06:26:17;;;;;;;1999.90;999.90;;;;;;;7.36;100.00;101200.94;10457263;28;20053;-66
2024/03/05 06:31:20;;;;;;;1999.90;999.90;;;;;;;7.01;100.00;101207.41;10455884;28;20081;-65
2024/03/05 06:36:22;;;;;;;1999.90;999.90;;;;;;;7.27;100.00;101211.69;10456722;28;20520;-66
2024/03/05 06:41:27;;;;;;;1999.90;999.90;;;;;;;7.30;100.00;101206.38;10455413;28;20500;-66
2024/03/05 06:46:29;;;;;;;1999.90;999.90;;;;;;;7.33;100.00;101211.47;10456669;28;20088;-66
2024/03/05 06:51:41;;;;;;;1999.90;999.90;;;;;;;7.25;100.00;101213.50;10456619;28;20081;-65
2024/03/05 06:56:44;;;;;;;1999.90;999.90;;;;;;;7.04;100.00;101202.97;10456503;28;20049;-66
2024/03/05 07:01:46;;;;;;;1999.90;999.90;;;;;;;7.26;100.00;101217.78;10456106;28;20118;-66
2024/03/05 07:06:49;;;;;;;1999.90;999.90;;;;;;;7.17;100.00;101212.94;10455998;28;20577;-66
2024/03/05 07:11:53;;;;;;;1999.90;999.90;;;;;;;7.16;100.00;101214.69;10455942;28;20088;-65
2024/03/05 07:16:56;;;;;;;1999.90;999.90;;;;;;;7.19;100.00;101213.72;10455210;28;20056;-65
2024/03/05 07:21:58;;;;;;;1999.90;999.90;;;;;;;7.33;100.00;101214.06;10455694;28;20052;-65
2024/03/05 07:27:01;;;;;;;1999.90;999.90;;;;;;;7.24;100.00;101228.25;10456740;28;20045;-66
2024/03/05 07:32:15;;;;;;;1999.90;999.90;;;;;;;7.44;100.00;101230.13;10455766;28;20120;-66
2024/03/05 07:37:18;;;;;;;1999.90;999.90;;;;;;;7.03;100.00;101240.31;10455588;28;20175;-66
2024/03/05 07:42:20;;;;;;;1999.90;999.90;;;;;;;7.27;100.00;101245.56;10455363;28;20052;-65
2024/03/05 07:47:22;;;;;;;1999.90;999.90;;;;;;;7.22;100.00;101234.44;10455246;28;20081;-66
2024/03/05 07:52:25;;;;;;;1999.90;999.90;;;;;;;7.43;100.00;101222.38;10455170;28;20125;-66
2024/03/05 07:57:27;;;;;;;1999.90;999.90;;;;;;;8.05;100.00;101220.00;10454843;28;20386;-66
2024/03/05 08:02:30;;;;;;;1999.90;999.90;;;;;;;7.83;100.00;101223.47;10454687;28;20124;-66
2024/03/05 08:07:36;;;;;;;1999.90;999.90;;;;;;;8.12;100.00;101224.06;10453653;28;20160;-66
2024/03/05 08:12:42;;;;;;;1999.90;999.90;;;;;;;7.88;100.00;101234.56;10453546;28;20103;-66
2024/03/05 08:17:46;;;;;;;1999.90;999.90;;;;;;;7.90;100.00;101234.50;10453476;28;20049;-69
2024/03/05 08:22:49;;;;;;;1999.90;999.90;;;;;;;8.07;100.00;101229.47;10453509;28;20107;-69
2024/03/05 08:27:59;;;;;;;1999.90;999.90;;;;;;;8.21;100.00;101235.91;10455292;28;20049;-69
2024/03/05 08:33:03;;;;;;;1999.90;999.90;;;;;;;8.27;100.00;101233.03;10460653;28;20072;-68
2024/03/05 08:38:07;;;;;;;1999.90;999.90;;;;;;;8.25;100.00;101240.06;10461645;28;20131;-68
2024/03/05 08:43:09;;;;;;;1999.90;999.90;;;;;;;8.56;100.00;101239.69;10461422;28;20045;-68
2024/03/05 08:48:13;;;;;;;1999.90;999.90;;;;;;;8.11;100.00;101240.63;10461004;28;20413;-68
2024/03/05 08:53:16;;;;;;;1999.90;999.90;;;;;;;8.21;100.00;101243.72;10459909;28;20413;-68
2024/03/05 08:58:18;;;;;;;1999.90;999.90;;;;;;;8.25;100.00;101246.13;10460699;28;20049;-68
2024/03/05 09:03:21;;;;;;;1999.90;999.90;;;;;;;8.41;100.00;101243.75;10460521;28;20185;-69
2024/03/05 09:08:23;;;;;;;1999.90;999.90;;;;;;;8.82;100.00;101256.84;10460415;28;20082;-69
2024/03/05 09:13:26;;;;;;;1999.90;999.90;;;;;;;9.03;100.00;101262.09;10459122;28;20129;-69
2024/03/05 09:18:29;;;;;;;1999.90;999.90;;;;;;;9.14;100.00;101256.38;10460237;28;20048;-68
2024/03/05 09:23:31;;;;;;;1999.90;999.90;;;;;;;9.24;100.00;101263.75;10459985;28;20059;-69
2024/03/05 09:28:37;;;;;;;1999.90;999.90;;;;;;;9.07;100.00;101261.03;10459633;28;20490;-68
2024/03/05 09:33:40;;;;;;;1999.90;999.90;;;;;;;9.39;100.00;101261.38;10458189;28;20061;-69
2024/03/05 09:38:43;;;;;;;1999.90;999.90;;;;;;;9.45;100.00;101261.94;10458971;28;20053;-69
2024/03/05 09:43:45;;;;;;;1999.90;999.90;;;;;;;9.55;100.00;101257.16;10459122;28;20079;-68
2024/03/05 09:48:48;;;;;;;1999.90;999.90;;;;;;;9.72;100.00;101250.31;10458919;28;20063;-68
2024/03/05 09:53:52;;;;;;;1999.90;999.90;;;;;;;9.90;98.81;101251.19;10458712;28;20085;-68
2024/03/05 09:58:55;;;;;;;1999.90;999.90;;;;;;;10.00;93.77;101255.06;10458463;28;20048;-68
2024/03/05 10:03:58;;;;;;;1999.90;999.90;;;;;;;9.74;89.57;101251.91;10456787;28;20136;-68
2024/03/05 10:09:01;;;;;;;1999.90;999.90;;;;;;;9.80;89.56;101266.47;10456881;28;20094;-68
2024/03/05 10:14:08;;;;;;;1999.90;999.90;;;;;;;9.48;90.06;101284.47;10457974;28;20081;-68
2024/03/05 10:19:15;;;;;;;1999.90;999.90;;;;;;;9.28;90.58;101286.22;10456367;28;20215;-67
2024/03/05 10:24:31;;;;;;;1999.90;999.90;;;;;;;9.41;88.88;101280.44;10456222;28;20084;-68
2024/03/05 10:29:35;;;;;;;1999.90;999.90;;;;;;;9.40;90.01;101282.22;10456932;28;20045;-68
2024/03/05 10:34:43;;;;;;;1999.90;999.90;;;;;;;9.49;90.45;101296.63;10456332;28;20060;-68
2024/03/05 10:39:46;;;;;;;1999.90;999.90;;;;;;;9.45;94.00;101293.31;10457032;28;20045;-68
2024/03/05 10:44:50;;;;;;;1999.90;999.90;;;;;;;9.06;94.02;101293.28;10455590;28;20402;-68
2024/03/05 10:49:52;;;;;;;1999.90;999.90;;;;;;;9.24;96.03;101295.09;10455010;28;20075;-68
2024/03/05 10:54:56;;;;;;;1999.90;999.90;;;;;;;9.27;94.30;101294.13;10456632;28;20059;-68
2024/03/05 10:59:59;;;;;;;1999.90;999.90;;;;;;;9.18;93.82;101304.97;10455313;28;20478;-68
2024/03/05 11:05:02;;;;;;;1999.90;999.90;;;;;;;8.87;95.60;101308.91;10456271;28;20052;-68
2024/03/05 11:10:09;;;;;;;1999.90;999.90;;;;;;;8.97;97.14;101302.38;10455968;28;20080;-67
2024/03/05 11:15:12;;;;;;;1999.90;999.90;;;;;;;9.21;98.40;101304.84;10454897;28;20084;-67
2024/03/05 11:20:40;;;;;;;1999.90;999.90;;;;;;;9.07;100.00;101310.66;10454259;28;20128;-67
2024/03/05 11:25:47;;;;;;;1999.90;999.90;;;;;;;9.16;100.00;101310.25;10454617;28;20057;-67
2024/03/05 11:31:11;;;;;;;1999.90;999.90;;;;;;;8.92;100.00;101315.59;10455422;28;20075;-67
2024/03/05 11:36:24;;;;;;;1999.90;999.90;;;;;;;9.04;100.00;101313.41;10454228;28;20053;-67
2024/03/05 11:41:27;;;;;;;1999.90;999.90;;;;;;;8.84;100.00;101311.63;10455345;28;20053;-67
2024/03/05 11:46:39;;;;;;;1999.90;999.90;;;;;;;8.95;100.00;101316.41;10437497;28;20132;-67
2024/03/05 11:51:46;;;;;;;1999.90;999.90;;;;;;;9.04;100.00;101319.47;10454026;28;20512;-67
2024/03/05 11:56:59;;;;;;;1999.90;999.90;;;;;;;8.96;100.00;101324.19;10454189;28;20404;-67
2024/03/05 12:02:01;;;;;;;1999.90;999.90;;;;;;;8.90;100.00;101321.81;10457600;28;20071;-67
2024/03/05 12:07:07;;;;;;;1999.90;999.90;;;;;;;8.89;100.00;101322.72;10462705;28;20433;-67
2024/03/05 12:12:15;;;;;;;1999.90;999.90;;;;;;;9.07;100.00;101323.72;10462625;28;20072;-67
2024/03/05 12:17:18;;;;;;;1999.90;999.90;;;;;;;9.06;100.00;101320.28;10462386;28;20410;-67
2024/03/05 12:22:22;;;;;;;1999.90;999.90;;;;;;;9.32;100.00;101333.13;10462051;28;20045;-67
2024/03/05 12:27:25;;;;;;;1999.90;999.90;;;;;;;9.53;100.00;101326.09;10462406;28;20132;-67
2024/03/05 12:32:27;;;;;;;1999.90;999.90;;;;;;;9.39;100.00;101329.31;10460839;28;20049;-67
2024/03/05 12:37:30;;;;;;;1999.90;999.90;;;;;;;9.34;100.00;101326.06;10462086;28;20049;-67
2024/03/05 12:42:33;;;;;;;1999.90;999.90;;;;;;;9.36;100.00;101327.69;10461779;28;20053;-68
2024/03/05 12:47:35;;;;;;;1999.90;999.90;;;;;;;9.46;100.00;101330.75;10461247;28;20079;-68
2024/03/05 12:52:38;;;;;;;1999.90;999.90;;;;;;;9.24;100.00;101334.28;10460430;28;20055;-68
2024/03/05 12:57:41;;;;;;;1999.90;999.90;;;;;;;9.34;100.00;101334.75;10461114;28;20049;-68
2024/03/05 13:02:48;;;;;;;1999.90;999.90;;;;;;;9.47;100.00;101340.28;10461033;28;20049;-68
2024/03/05 13:07:51;;;;;;;1999.90;999.90;;;;;;;9.48;100.00;101336.75;10460009;28;20136;-67
2024/03/05 13:12:54;;;;;;;1999.90;999.90;;;;;;;9.71;100.00;101340.94;10458146;28;20063;-68
2024/03/05 13:17:56;;;;;;;1999.90;999.90;;;;;;;9.76;100.00;101344.19;10460123;28;20409;-68
2024/03/05 13:22:59;;;;;;;1999.90;999.90;;;;;;;9.67;100.00;101352.47;10441914;28;20049;-67
2024/03/05 13:28:03;;;;;;;1999.90;999.90;;;;;;;9.32;100.00;101357.47;10459554;28;20119;-68
2024/03/05 13:33:06;;;;;;;1999.90;999.90;;;;;;;9.81;100.00;101359.69;10459374;28;20144;-68
2024/03/05 13:38:10;;;;;;;1999.90;999.90;;;;;;;9.81;100.00;101364.94;10459426;28;20083;-67
2024/03/05 13:43:12;;;;;;;1999.90;999.90;;;;;;;9.86;100.00;101357.72;10458883;28;20045;-68
2024/03/05 13:48:15;;;;;;;1999.90;999.90;;;;;;;10.03;100.00;101360.41;10458755;28;20436;-67
2024/03/05 13:53:20;;;;;;;1999.90;999.90;;;;;;;10.53;100.00;101356.34;10458794;28;20053;-68
2024/03/05 13:58:22;;;;;;;1999.90;999.90;;;;;;;10.23;100.00;101364.72;10458475;28;20107;-68
2024/03/05 14:03:25;;;;;;;1999.90;999.90;;;;;;;10.48;100.00;101360.13;10458379;28;20174;-68
2024/03/05 14:08:30;;;;;;;1999.90;999.90;;;;;;;10.48;100.00;101357.50;10458055;28;20080;-67
2024/03/05 14:13:32;;;;;;;1999.90;999.90;;;;;;;10.44;99.44;101363.81;10458103;28;20045;-68
2024/03/05 14:18:35;;;;;;;1999.90;999.90;;;;;;;10.83;99.94;101361.03;10457636;28;20135;-68
2024/03/05 14:23:39;;;;;;;1999.90;999.90;;;;;;;10.42;98.99;101369.09;10456237;28;20533;-67
2024/03/05 14:28:41;;;;;;;1999.90;999.90;;;;;;;10.72;94.98;101368.56;10457254;28;20136;-68
2024/03/05 14:33:43;;;;;;;1999.90;999.90;;;;;;;10.85;98.69;101367.03;10457015;28;20049;-67
2024/03/05 14:38:46;;;;;;;1999.90;999.90;;;;;;;10.77;92.98;101358.69;10457026;28;20049;-67
2024/03/05 14:43:48;;;;;;;1999.90;999.90;;;;;;;11.09;93.16;101356.25;10456453;28;20509;-67
2024/03/05 14:48:51;;;;;;;1999.90;999.90;;;;;;;10.79;91.20;101362.09;10456729;28;20056;-67
2024/03/05 14:53:53;;;;;;;1999.90;999.90;;;;;;;10.98;92.50;101364.66;10456763;28;20080;-67
2024/03/05 14:58:56;;;;;;;1999.90;999.90;;;;;;;10.72;94.32;101374.63;10456306;28;20072;-67
2024/03/05 15:04:00;;;;;;;1999.90;999.90;;;;;;;10.71;97.90;101379.97;10456783;28;20052;-68
2024/03/05 15:09:07;;;;;;;1999.90;999.90;;;;;;;10.56;99.82;101385.00;10454774;28;20140;-67
2024/03/05 15:14:09;;;;;;;1999.90;999.90;;;;;;;10.34;100.00;101387.81;10454752;28;20131;-67
2024/03/05 15:19:14;;;;;;;1999.90;999.90;;;;;;;10.18;100.00;101392.03;10455476;28;20497;-67
2024/03/05 15:24:17;;;;;;;1999.90;999.90;;;;;;;10.08;100.00;101395.97;10455828;28;20049;-68
2024/03/05 15:29:19;;;;;;;1999.90;999.90;;;;;;;10.09;100.00;101392.47;10455716;28;20053;-68
2024/03/05 15:34:22;;;;;;;1999.90;999.90;;;;;;;10.12;100.00;101398.41;10455803;28;20045;-68
2024/03/05 15:39:24;;;;;;;1999.90;999.90;;;;;;;9.98;100.00;101401.63;10462039;28;20413;-68
2024/03/05 15:44:28;;;;;;;1999.90;999.90;;;;;;;9.91;100.00;101397.59;10462458;28;20045;-68
2024/03/05 15:49:31;;;;;;;1999.90;999.90;;;;;;;9.83;100.00;101400.56;10463486;28;20059;-68
2024/03/05 15:54:33;;;;;;;1999.90;999.90;;;;;;;9.72;100.00;101404.56;10463168;28;20049;-68
2024/03/05 16:04:57;;;;;;;1999.90;999.90;;;;;;;9.87;100.00;101416.97;10462785;28;20508;-68
2024/03/05 16:10:19;;;;;;;1999.90;999.90;;;;;;;9.65;100.00;101415.28;10462801;28;20064;-68
2024/03/05 16:15:22;;;;;;;1999.90;999.90;;;;;;;9.59;100.00;101415.56;10461450;28;20127;-68
2024/03/05 16:20:26;;;;;;;1999.90;999.90;;;;;;;9.68;100.00;101424.75;10462173;28;20128;-68
2024/03/05 16:25:28;;;;;;;1999.90;999.90;;;;;;;9.56;100.00;101415.69;10474662;22;20469;-69
2024/03/05 16:30:32;;;;;;;1999.90;999.90;;;;;;;9.61;100.00;101421.56;10444370;28;20056;-69
2024/03/05 16:35:35;;;;;;;1999.90;999.90;;;;;;;9.44;100.00;101427.50;10461749;28;20413;-70
2024/03/05 16:40:39;;;;;;;1999.90;999.90;;;;;;;9.38;100.00;101438.25;10460519;28;20056;-70
2024/03/05 16:45:41;;;;;;;1999.90;999.90;;;;;;;9.34;100.00;101441.03;10461115;28;20049;-69
2024/03/05 16:50:43;;;;;;;1999.90;999.90;;;;;;;9.18;100.00;101453.88;10459767;28;20041;-69
2024/03/05 16:55:47;;;;;;;1999.90;999.90;;;;;;;9.12;100.00;101452.38;10461060;28;20059;-69
2024/03/05 17:00:51;;;;;;;1999.90;999.90;;;;;;;9.32;100.00;101453.34;10460540;28;20087;-69
2024/03/05 17:05:55;;;;;;;1999.90;999.90;;;;;;;9.11;100.00;101456.75;10460568;28;20060;-68
2024/03/05 17:10:58;;;;;;;1999.90;999.90;;;;;;;9.14;100.00;101460.16;10460637;28;20147;-69
2024/03/05 17:16:03;;;;;;;1999.90;999.90;;;;;;;9.00;100.00;101471.16;10458745;28;20214;-69
2024/03/05 17:21:07;;;;;;;1999.90;999.90;;;;;;;8.92;100.00;101466.25;10460174;28;20048;-69
2024/03/05 17:26:11;;;;;;;1999.90;999.90;;;;;;;8.91;100.00;101468.00;10458230;28;20111;-70
2024/03/05 17:31:14;;;;;;;1999.90;999.90;;;;;;;8.74;100.00;101468.69;10458630;28;20052;-69
2024/03/05 17:36:16;;;;;;;1999.90;999.90;;;;;;;8.71;100.00;101481.00;10459617;28;20094;-69
2024/03/05 17:41:19;;;;;;;1999.90;999.90;;;;;;;8.96;100.00;101482.63;10459244;28;20045;-69
2024/03/05 17:46:21;;;;;;;1999.90;999.90;;;;;;;8.77;100.00;101499.03;10459032;28;20079;-70
2024/03/05 17:51:27;;;;;;;1999.90;999.90;;;;;;;8.70;100.00;101495.78;10457330;28;20481;-70
2024/03/05 17:56:30;;;;;;;1999.90;999.90;;;;;;;8.55;100.00;101510.28;10458460;28;20405;-69
2024/03/05 18:01:35;;;;;;;1999.90;999.90;;;;;;;8.46;100.00;101515.00;10457635;28;20088;-69
2024/03/05 18:06:37;;;;;;;1999.90;999.90;;;;;;;8.42;100.00;101511.59;10457869;28;20052;-70
2024/03/05 18:11:41;;;;;;;1999.90;999.90;;;;;;;8.31;100.00;101514.63;10458313;28;20452;-70
2024/03/05 18:16:43;;;;;;;1999.90;999.90;;;;;;;8.23;100.00;101521.03;10457639;28;20480;-69
2024/03/05 18:21:46;;;;;;;1999.90;999.90;;;;;;;8.26;100.00;101521.75;10456170;28;20052;-69
2024/03/05 18:26:49;;;;;;;1999.90;999.90;;;;;;;7.99;100.00;101518.38;10457508;28;20096;-69
2024/03/05 18:31:51;;;;;;;1999.90;999.90;;;;;;;7.99;100.00;101521.00;10456845;28;20418;-70
2024/03/05 18:36:54;;;;;;;1999.90;999.90;;;;;;;7.85;100.00;101529.31;10455983;28;20059;-69
2024/03/05 18:41:57;;;;;;;1999.90;999.90;;;;;;;7.67;100.00;101525.56;10455729;28;20103;-69
2024/03/05 18:46:59;;;;;;;1999.90;999.90;;;;;;;7.73;100.00;101527.09;10456609;28;20482;-69
2024/03/05 18:52:03;;;;;;;1999.90;999.90;;;;;;;7.76;100.00;101522.63;10455351;28;20404;-69
2024/03/05 18:57:05;;;;;;;1999.90;999.90;;;;;;;7.38;100.00;101534.31;10456214;28;20139;-69
2024/03/05 19:02:08;;;;;;;1999.90;999.90;;;;;;;7.02;100.00;101545.84;10455069;28;20045;-69
2024/03/05 19:07:11;;;;;;;1999.90;999.90;;;;;;;9.39;100.00;101546.25;10455771;28;20060;-69
2024/03/05 19:12:13;;;;;;;1999.90;999.90;;;;;;;6.97;100.00;101547.72;10455304;28;20124;-69
2024/03/05 19:17:16;;;;;;;1999.90;999.90;;;;;;;7.10;100.00;101553.44;10454741;28;20055;-69
2024/03/05 19:22:19;;;;;;;1999.90;999.90;;;;;;;7.06;100.00;101555.28;10455562;28;20060;-69
2024/03/05 19:27:23;;;;;;;1999.90;999.90;;;;;;;7.23;100.00;101557.34;10454416;28;20122;-69
2024/03/05 19:32:26;;;;;;;1999.90;999.90;;;;;;;7.20;100.00;101554.84;10454700;28;20103;-69
2024/03/05 19:37:28;;;;;;;1999.90;999.90;;;;;;;7.16;100.00;101554.97;10454494;28;20076;-69
2024/03/05 19:42:31;;;;;;;1999.90;999.90;;;;;;;7.77;100.00;101563.44;10455456;28;20045;-69
2024/03/05 19:47:34;;;;;;;1999.90;999.90;;;;;;;7.21;100.00;101563.50;10453910;28;20410;-69
2024/03/05 19:52:37;;;;;;;1999.90;999.90;;;;;;;7.27;100.00;101565.94;10455116;28;20406;-69
2024/03/05 19:57:39;;;;;;;1999.90;999.90;;;;;;;7.23;100.00;101559.13;10454231;28;20045;-69
2024/03/05 20:02:42;;;;;;;1999.90;999.90;;;;;;;6.98;100.00;101577.25;10454913;28;20084;-69
2024/03/05 20:07:45;;;;;;;1999.90;999.90;;;;;;;7.09;100.00;101579.50;10455037;28;20059;-69
2024/03/05 20:12:48;;;;;;;1999.90;999.90;;;;;;;7.05;100.00;101584.81;10455264;28;20552;-69
2024/03/05 20:17:50;;;;;;;1999.90;999.90;;;;;;;8.22;100.00;101587.13;10455301;28;20053;-69
2024/03/05 20:22:52;;;;;;;1999.90;999.90;;;;;;;8.82;100.00;101590.25;10456606;28;20068;-69
2024/03/05 20:27:55;;;;;;;1999.90;999.90;;;;;;;7.04;100.00;101597.88;10461978;28;20052;-69
2024/03/05 20:32:59;;;;;;;1999.90;999.90;;;;;;;7.13;100.00;101609.75;10460867;28;20458;-69
2024/03/05 20:38:03;;;;;;;1999.90;999.90;;;;;;;7.15;100.00;101607.97;10460540;28;20132;-69
2024/03/05 20:43:06;;;;;;;1999.90;999.90;;;;;;;7.07;100.00;101614.25;10460533;28;20053;-69
2024/03/05 20:48:11;;;;;;;1999.90;999.90;;;;;;;7.14;100.00;101614.94;10460247;28;20056;-69
2024/03/05 20:53:14;;;;;;;1999.90;999.90;;;;;;;7.15;100.00;101602.78;10459877;28;20401;-69
2024/03/05 20:58:16;;;;;;;1999.90;999.90;;;;;;;7.75;100.00;101612.19;10461046;28;20490;-69
2024/03/05 21:03:21;;;;;;;1999.90;999.90;;;;;;;7.00;100.00;101609.28;10460600;28;20081;-69
2024/03/05 21:08:24;;;;;;;1999.90;999.90;;;;;;;7.09;100.00;101608.16;10460729;28;20059;-69
2024/03/05 21:13:27;;;;;;;1999.90;999.90;;;;;;;7.11;100.00;101604.63;10460242;28;20562;-70
2024/03/05 21:18:29;;;;;;;1999.90;999.90;;;;;;;9.62;100.00;101593.22;10459640;28;20059;-69
2024/03/05 21:23:33;;;;;;;1999.90;999.90;;;;;;;7.23;100.00;101601.63;10459950;28;20049;-70
2024/03/05 21:28:37;;;;;;;1999.90;999.90;;;;;;;7.04;100.00;101603.94;10460167;28;20059;-69
2024/03/05 21:33:39;;;;;;;1999.90;999.90;;;;;;;7.09;100.00;101613.38;10458975;28;20099;-69
2024/03/05 21:38:42;;;;;;;1999.90;999.90;;;;;;;7.10;100.00;101620.28;10458385;28;20065;-69
2024/03/05 21:43:44;;;;;;;1999.90;999.90;;;;;;;7.19;100.00;101622.59;10459506;28;20045;-69
2024/03/05 21:48:48;;;;;;;1999.90;999.90;;;;;;;7.16;100.00;101639.19;10459434;28;20079;-69
2024/03/05 21:53:50;;;;;;;1999.90;999.90;;;;;;;7.05;100.00;101634.28;10458116;28;20053;-69
2024/03/05 21:58:53;;;;;;;1999.90;999.90;;;;;;;6.97;100.00;101633.66;10457303;28;20088;-70
2024/03/05 22:03:55;;;;;;;1999.90;999.90;;;;;;;6.95;100.00;101647.63;10458580;28;20045;-69